createdAt,value
2023-01-26T00:02:03.698Z,89.80
2023-01-26T00:04:31.639Z,80.50
2023-01-26T00:06:59.622Z,91.90
2023-01-26T00:09:27.660Z,82.40
2023-01-26T00:11:55.533Z,83.70
2023-01-26T00:14:23.565Z,90.30
2023-01-26T00:16:51.579Z,85.60
2023-01-26T00:19:19.764Z,84.70
2023-01-26T00:21:47.631Z,86.30
2023-01-26T00:24:15.845Z,80.20
2023-01-26T00:26:43.794Z,76.10
2023-01-26T00:29:11.696Z,82.60
2023-01-26T00:31:39.642Z,84.70
2023-01-26T00:34:07.594Z,83.00
2023-01-26T00:36:37.690Z,83.70
2023-01-26T00:39:05.779Z,79.80
2023-01-26T00:41:54.360Z,84.40
2023-01-26T00:44:22.363Z,79.70
2023-01-26T00:46:50.397Z,79.10
2023-01-26T00:49:18.608Z,81.80
2023-01-26T00:51:46.857Z,82.70
2023-01-26T00:54:15.323Z,84.20
2023-01-26T00:56:43.351Z,84.60
2023-01-26T00:59:11.681Z,87.90
2023-01-26T01:01:39.806Z,86.10
2023-01-26T01:04:07.804Z,79.00
2023-01-26T01:06:35.976Z,91.60
2023-01-26T01:09:04.020Z,77.10
2023-01-26T01:11:32.585Z,80.40
2023-01-26T01:14:00.460Z,84.70
2023-01-26T01:16:28.769Z,85.00
2023-01-26T01:18:58.219Z,80.90
2023-01-26T01:21:26.362Z,87.80
2023-01-26T01:23:54.509Z,80.80
2023-01-26T01:26:22.818Z,86.20
2023-01-26T01:28:54.740Z,86.50
2023-01-26T01:31:23.147Z,94.70
2023-01-26T01:33:52.733Z,96.80
2023-01-26T01:36:21.028Z,81.10
2023-01-26T01:38:49.318Z,85.80
2023-01-26T01:41:21.084Z,82.10
2023-01-26T01:43:49.845Z,85.30
2023-01-26T01:46:29.672Z,84.70
2023-01-26T01:49:05.697Z,83.80
2023-01-26T01:51:35.976Z,86.20
2023-01-26T01:54:11.776Z,81.70
2023-01-26T01:56:43.677Z,85.80
2023-01-26T01:59:13.033Z,86.90
2023-01-26T02:01:42.139Z,90.80
2023-01-26T02:04:11.473Z,82.00
2023-01-26T02:06:49.058Z,90.00
2023-01-26T02:09:39.583Z,84.90
2023-01-26T02:12:11.738Z,87.10
2023-01-26T02:14:40.922Z,86.00
2023-01-26T02:17:10.088Z,86.50
2023-01-26T02:20:13.169Z,86.20
2023-01-26T02:22:50.141Z,77.30
2023-01-26T02:25:57.398Z,80.70
2023-01-26T02:28:27.508Z,77.30
2023-01-26T02:30:57.391Z,78.00
2023-01-26T02:36:25.200Z,75.40
2023-01-26T02:39:11.973Z,64.20
2023-01-26T02:41:59.670Z,76.00
2023-01-26T02:44:30.182Z,75.30
2023-01-26T02:46:58.159Z,69.10
2023-01-26T02:49:44.932Z,77.50
2023-01-26T02:52:16.395Z,73.20
2023-01-26T02:55:04.423Z,59.40
2023-01-26T02:57:34.455Z,76.80
2023-01-26T03:00:05.113Z,77.80
2023-01-26T03:02:33.095Z,74.40
2023-01-26T03:05:01.434Z,71.70
2023-01-26T03:07:29.472Z,75.70
2023-01-26T03:09:58.952Z,81.40
2023-01-26T03:12:27.133Z,77.30
2023-01-26T03:15:30.837Z,72.70
2023-01-26T03:18:25.781Z,69.70
2023-01-26T03:21:12.413Z,74.30
2023-01-26T03:23:59.055Z,73.00
2023-01-26T03:26:46.232Z,79.50
2023-01-26T03:29:14.526Z,83.10
2023-01-26T03:31:43.250Z,102.90
2023-01-26T03:34:12.041Z,80.70
2023-01-26T03:36:40.380Z,87.10
2023-01-26T03:39:32.588Z,73.60
2023-01-26T03:42:19.655Z,79.00
2023-01-26T03:45:06.183Z,77.00
2023-01-26T03:47:54.881Z,86.80
2023-01-26T03:50:42.295Z,98.50
2023-01-26T03:53:33.171Z,86.00
2023-01-26T03:56:20.571Z,78.10
2023-01-26T03:58:57.219Z,73.50
2023-01-26T04:02:42.794Z,80.00
2023-01-26T04:05:30.841Z,76.90
2023-01-26T04:08:43.587Z,74.60
2023-01-26T04:11:11.916Z,72.00
2023-01-26T04:13:58.394Z,78.30
2023-01-26T04:16:49.708Z,87.70
2023-01-26T04:19:36.737Z,79.60
2023-01-26T04:22:04.899Z,92.30
2023-01-26T04:24:35.204Z,89.10
2023-01-26T04:27:03.079Z,86.00
2023-01-26T04:29:36.044Z,80.80
2023-01-26T04:34:36.437Z,81.20
2023-01-26T04:37:11.540Z,83.10
2023-01-26T04:39:48.459Z,78.90
2023-01-26T04:42:16.669Z,79.30
2023-01-26T04:44:45.565Z,84.20
2023-01-26T04:47:13.366Z,77.70
2023-01-26T04:49:41.205Z,81.80
2023-01-26T04:52:09.101Z,74.90
2023-01-26T04:54:37.382Z,76.00
2023-01-26T04:57:05.557Z,82.40
2023-01-26T04:59:35.169Z,89.20
2023-01-26T05:02:03.773Z,82.50
2023-01-26T05:05:08.705Z,87.30
2023-01-26T05:07:36.955Z,86.40
2023-01-26T05:10:05.802Z,90.70
2023-01-26T05:12:52.727Z,89.80
2023-01-26T05:15:29.651Z,88.00
2023-01-26T05:18:24.071Z,85.90
2023-01-26T05:21:00.723Z,82.10
2023-01-26T05:23:33.475Z,88.70
2023-01-26T05:26:34.044Z,82.30
2023-01-26T05:29:07.039Z,80.90
2023-01-26T05:31:35.262Z,91.20
2023-01-26T05:34:03.248Z,89.50
2023-01-26T05:36:32.126Z,89.50
2023-01-26T05:39:00.114Z,84.70
2023-01-26T05:41:28.716Z,94.80
2023-01-26T05:44:13.541Z,85.80
2023-01-26T05:46:55.594Z,90.80
2023-01-26T05:49:23.641Z,90.20
2023-01-26T05:51:52.481Z,84.50
2023-01-26T05:54:20.938Z,89.80
2023-01-26T05:56:49.080Z,90.90
2023-01-26T05:59:19.047Z,95.60
2023-01-26T06:01:47.690Z,89.50
2023-01-26T06:04:17.049Z,96.30
2023-01-26T06:06:56.959Z,89.60
2023-01-26T06:09:29.433Z,83.90
2023-01-26T06:12:12.710Z,89.40
2023-01-26T06:14:51.840Z,93.20
2023-01-26T06:17:20.944Z,94.50
2023-01-26T06:19:54.295Z,88.20
2023-01-26T06:22:22.356Z,95.10
2023-01-26T06:24:51.464Z,96.30
2023-01-26T06:27:19.326Z,87.90
2023-01-26T06:29:49.671Z,94.00
2023-01-26T06:32:18.228Z,93.90
2023-01-26T06:34:49.184Z,93.00
2023-01-26T06:37:17.766Z,94.00
2023-01-26T06:39:45.608Z,95.90
2023-01-26T06:42:13.525Z,94.30
2023-01-26T06:44:41.487Z,104.10
2023-01-26T06:47:09.380Z,97.80
2023-01-26T06:49:37.712Z,98.80
2023-01-26T06:52:31.790Z,104.90
2023-01-26T06:55:05.152Z,127.20
2023-01-26T06:57:47.605Z,106.70
2023-01-26T07:00:34.255Z,112.50
2023-01-26T07:03:14.404Z,117.10
2023-01-26T07:05:42.228Z,116.80
2023-01-26T07:08:09.983Z,115.80
2023-01-26T07:10:38.735Z,116.50
2023-01-26T07:13:07.124Z,133.20
2023-01-26T07:15:34.970Z,112.50
2023-01-26T07:18:02.892Z,102.90
2023-01-26T07:20:30.914Z,100.10
2023-01-26T07:23:01.757Z,109.00
2023-01-26T07:25:30.322Z,106.60
2023-01-26T07:27:59.534Z,102.10
2023-01-26T07:30:27.520Z,98.20
2023-01-26T07:32:55.250Z,84.90
2023-01-26T07:35:23.081Z,89.20
2023-01-26T07:37:50.845Z,80.60
2023-01-26T07:40:18.776Z,73.00
2023-01-26T07:42:47.119Z,74.00
2023-01-26T07:45:44.880Z,71.80
2023-01-26T07:48:12.838Z,70.00
2023-01-26T07:50:40.978Z,69.70
2023-01-26T07:53:09.479Z,71.90
2023-01-26T07:55:37.251Z,63.70
2023-01-26T07:58:05.075Z,60.10
2023-01-26T08:00:32.899Z,54.90
2023-01-26T08:03:01.062Z,53.70
2023-01-26T08:05:29.366Z,54.50
2023-01-26T08:07:59.081Z,45.30
2023-01-26T08:10:31.643Z,44.00
2023-01-26T08:13:00.732Z,46.50
2023-01-26T08:15:29.208Z,44.20
2023-01-26T08:17:56.966Z,39.40
2023-01-26T08:20:24.719Z,42.40
2023-01-26T08:22:53.703Z,42.60
2023-01-26T08:25:21.575Z,37.20
2023-01-26T08:27:49.664Z,41.00
2023-01-26T08:30:17.852Z,40.10
2023-01-26T08:32:45.622Z,40.00
2023-01-26T08:35:13.558Z,37.40
2023-01-26T08:37:41.476Z,42.30
2023-01-26T08:40:10.845Z,37.80
2023-01-26T08:42:38.918Z,40.70
2023-01-26T08:45:07.243Z,37.50
2023-01-26T08:47:35.252Z,33.90
2023-01-26T08:50:03.854Z,36.30
2023-01-26T08:52:31.891Z,42.30
2023-01-26T08:55:00.926Z,33.30
2023-01-26T08:57:28.766Z,27.30
2023-01-26T08:59:56.599Z,31.80
2023-01-26T09:02:24.551Z,32.20
2023-01-26T09:04:52.706Z,30.70
2023-01-26T09:07:20.828Z,38.60
2023-01-26T09:09:53.263Z,27.90
2023-01-26T09:12:24.927Z,26.80
2023-01-26T09:14:56.613Z,31.10
2023-01-26T09:17:27.501Z,29.40
2023-01-26T09:19:58.859Z,23.60
2023-01-26T09:22:30.821Z,32.90
2023-01-26T09:27:38.508Z,25.70
2023-01-26T09:30:12.061Z,33.90
2023-01-26T09:32:43.461Z,28.10
2023-01-26T09:35:15.257Z,32.00
2023-01-26T09:37:46.314Z,38.50
2023-01-26T09:40:26.430Z,33.50
2023-01-26T09:43:21.196Z,29.60
2023-01-26T09:46:19.903Z,30.20
2023-01-26T09:49:07.347Z,29.00
2023-01-26T09:51:42.484Z,28.90
2023-01-26T09:54:29.470Z,29.00
2023-01-26T09:57:10.523Z,31.40
2023-01-26T09:59:59.932Z,32.00
2023-01-26T10:03:03.925Z,27.40
2023-01-26T10:05:56.824Z,27.70
2023-01-26T10:08:44.164Z,29.90
2023-01-26T10:11:24.744Z,25.50
2023-01-26T10:13:57.765Z,30.30
2023-01-26T10:16:26.292Z,28.00
2023-01-26T10:19:02.687Z,24.90
2023-01-26T10:21:36.776Z,29.80
2023-01-26T10:24:05.976Z,25.10
2023-01-26T10:26:34.113Z,25.00
2023-01-26T10:29:03.469Z,29.50
2023-01-26T10:31:33.490Z,27.30
2023-01-26T10:34:11.786Z,24.90
2023-01-26T10:36:41.819Z,25.80
2023-01-26T10:39:14.614Z,25.60
2023-01-26T10:41:57.054Z,25.30
2023-01-26T10:44:45.174Z,27.50
2023-01-26T10:47:17.343Z,31.00
2023-01-26T10:49:45.870Z,27.50
2023-01-26T10:52:28.356Z,27.30
2023-01-26T10:55:19.946Z,27.30
2023-01-26T10:57:48.123Z,25.70
2023-01-26T11:04:38.014Z,27.90
2023-01-26T11:07:40.195Z,26.00
2023-01-26T11:10:38.476Z,24.50
2023-01-26T11:13:12.320Z,28.10
2023-01-26T11:15:47.960Z,25.20
2023-01-26T11:18:53.960Z,27.50
2023-01-26T11:21:36.042Z,25.00
2023-01-26T11:24:09.227Z,28.30
2023-01-26T11:26:52.321Z,27.90
2023-01-26T11:29:35.162Z,26.80
2023-01-26T11:32:24.779Z,24.60
2023-01-26T11:34:55.439Z,30.20
2023-01-26T11:37:36.504Z,26.90
2023-01-26T11:40:30.586Z,25.80
2023-01-26T11:43:42.915Z,32.70
2023-01-26T11:46:40.489Z,36.10
2023-01-26T11:49:46.152Z,31.40
2023-01-26T11:52:23.113Z,33.60
2023-01-26T11:55:18.827Z,28.40
2023-01-26T11:57:59.095Z,31.60
2023-01-26T12:00:40.232Z,33.20
2023-01-26T12:03:27.986Z,30.80
2023-01-26T12:06:00.453Z,31.00
2023-01-26T12:08:39.545Z,27.30
2023-01-26T12:11:33.844Z,29.50
2023-01-26T12:14:08.487Z,38.70
2023-01-26T12:16:39.359Z,29.20
2023-01-26T12:19:41.942Z,32.80
2023-01-26T12:25:28.937Z,32.50
2023-01-26T12:27:58.363Z,28.30
2023-01-26T12:30:31.082Z,31.30
2023-01-26T12:32:59.588Z,32.70
2023-01-26T12:35:37.988Z,30.30
2023-01-26T12:38:18.620Z,32.90
2023-01-26T12:41:19.168Z,32.40
2023-01-26T12:44:32.142Z,27.80
2023-01-26T12:47:12.826Z,27.40
2023-01-26T12:49:50.576Z,27.50
2023-01-26T12:52:31.855Z,32.20
2023-01-26T12:55:18.482Z,26.10
2023-01-26T12:57:55.273Z,32.80
2023-01-26T13:00:30.772Z,33.20
2023-01-26T13:03:17.079Z,43.30
2023-01-26T13:06:14.214Z,31.40
2023-01-26T13:08:54.397Z,30.40
2023-01-26T13:11:44.091Z,29.00
2023-01-26T13:14:33.550Z,30.30
2023-01-26T13:17:16.839Z,33.10
2023-01-26T13:19:44.776Z,47.60
2023-01-26T13:22:18.764Z,33.50
2023-01-26T13:24:56.173Z,36.00
2023-01-26T13:27:41.012Z,33.90
2023-01-26T13:30:24.526Z,36.10
2023-01-26T13:32:54.228Z,41.30
2023-01-26T13:35:26.769Z,46.60
2023-01-26T13:38:29.549Z,54.10
2023-01-26T13:40:59.089Z,41.40
2023-01-26T13:43:29.992Z,75.90
2023-01-26T13:46:19.916Z,32.70
2023-01-26T13:48:52.606Z,80.80
2023-01-26T13:51:24.989Z,31.50
2023-01-26T13:54:13.577Z,44.30
2023-01-26T13:57:07.260Z,35.60
2023-01-26T13:59:48.846Z,64.90
2023-01-26T14:02:49.742Z,35.80
2023-01-26T14:05:22.332Z,38.30
2023-01-26T14:07:50.215Z,42.70
2023-01-26T14:10:20.198Z,42.40
2023-01-26T14:12:56.627Z,45.50
2023-01-26T14:15:30.842Z,53.40
2023-01-26T14:18:04.620Z,79.70
2023-01-26T14:20:39.592Z,42.50
2023-01-26T14:23:07.327Z,52.40
2023-01-26T14:25:35.309Z,58.60
2023-01-26T14:28:04.025Z,66.00
2023-01-26T14:30:34.325Z,58.80
2023-01-26T14:33:16.521Z,54.70
2023-01-26T14:38:22.780Z,62.70
2023-01-26T14:40:53.760Z,62.60
2023-01-26T14:43:22.086Z,72.40
2023-01-26T14:46:33.104Z,50.00
2023-01-26T14:49:08.137Z,59.00
2023-01-26T14:51:37.913Z,62.60
2023-01-26T14:54:26.465Z,88.50
2023-01-26T14:56:54.494Z,69.60
2023-01-26T14:59:41.312Z,86.20
2023-01-26T15:02:22.780Z,98.20
2023-01-26T15:05:03.594Z,95.50
2023-01-26T15:08:05.362Z,101.00
2023-01-26T15:10:53.397Z,59.10
2023-01-26T15:13:29.953Z,88.40
2023-01-26T15:16:11.930Z,81.30
2023-01-26T15:18:39.742Z,66.30
2023-01-26T15:21:39.908Z,110.80
2023-01-26T15:24:15.032Z,81.70
2023-01-26T15:26:44.217Z,79.20
2023-01-26T15:29:30.685Z,56.20
2023-01-26T15:31:59.327Z,48.20
2023-01-26T15:34:32.437Z,53.50
2023-01-26T15:37:01.627Z,54.60
2023-01-26T15:39:30.254Z,53.60
2023-01-26T15:42:22.272Z,48.80
2023-01-26T15:44:50.468Z,52.90
2023-01-26T15:47:18.225Z,51.50
2023-01-26T15:49:46.376Z,54.10
2023-01-26T15:52:41.987Z,60.10
2023-01-26T15:55:26.641Z,60.60
2023-01-26T15:57:54.682Z,68.10
2023-01-26T16:00:23.675Z,51.60
2023-01-26T16:02:51.567Z,47.50
2023-01-26T16:05:23.177Z,56.40
2023-01-26T16:07:52.575Z,46.30
2023-01-26T16:10:20.827Z,68.00
2023-01-26T16:12:50.390Z,55.10
2023-01-26T16:15:27.523Z,61.90
2023-01-26T16:17:55.391Z,52.60
2023-01-26T16:20:23.204Z,40.90
2023-01-26T16:22:51.040Z,49.20
2023-01-26T16:25:29.337Z,66.10
2023-01-26T16:27:58.581Z,56.30
2023-01-26T16:30:26.919Z,57.70
2023-01-26T16:32:54.844Z,61.80
2023-01-26T16:35:24.221Z,62.80
2023-01-26T16:37:52.247Z,55.90
2023-01-26T16:40:20.186Z,58.00
2023-01-26T16:42:51.233Z,58.30
2023-01-26T16:45:22.918Z,57.80
2023-01-26T16:47:54.885Z,47.30
2023-01-26T16:50:24.062Z,68.90
2023-01-26T16:52:52.516Z,54.70
2023-01-26T16:55:20.536Z,59.90
2023-01-26T16:57:49.950Z,58.80
2023-01-26T17:00:20.407Z,56.40
2023-01-26T17:02:51.515Z,69.90
2023-01-26T17:05:22.245Z,48.30
2023-01-26T17:07:51.074Z,53.80
2023-01-26T17:10:22.580Z,57.30
2023-01-26T17:12:50.655Z,57.10
2023-01-26T17:15:18.649Z,59.00
2023-01-26T17:17:49.311Z,52.70
2023-01-26T17:20:19.640Z,61.80
2023-01-26T17:22:48.782Z,53.90
2023-01-26T17:25:18.275Z,77.90
2023-01-26T17:27:48.213Z,53.70
2023-01-26T17:30:17.726Z,88.20
2023-01-26T17:32:45.753Z,87.60
2023-01-26T17:35:14.097Z,53.70
2023-01-26T17:37:42.145Z,80.60
2023-01-26T17:40:11.058Z,38.10
2023-01-26T17:42:39.159Z,88.50
2023-01-26T17:45:09.941Z,75.50
2023-01-26T17:47:38.805Z,60.10
2023-01-26T17:50:07.146Z,70.90
2023-01-26T17:52:42.081Z,91.00
2023-01-26T17:55:13.000Z,41.60
2023-01-26T17:57:41.086Z,38.50
2023-01-26T18:00:12.101Z,52.10
2023-01-26T18:02:39.908Z,31.70
2023-01-26T18:05:08.923Z,31.90
2023-01-26T18:07:36.854Z,56.00
2023-01-26T18:10:05.153Z,38.30
2023-01-26T18:12:33.298Z,32.10
2023-01-26T18:15:01.551Z,31.10
2023-01-26T18:17:29.323Z,31.40
2023-01-26T18:19:57.071Z,37.40
2023-01-26T18:22:24.901Z,28.90
2023-01-26T18:24:52.774Z,29.60
2023-01-26T18:27:20.629Z,46.90
2023-01-26T18:29:48.515Z,35.50
2023-01-26T18:32:16.424Z,39.30
2023-01-26T18:34:44.385Z,29.10
2023-01-26T18:37:13.143Z,31.40
2023-01-26T18:39:40.967Z,36.50
2023-01-26T18:42:08.793Z,29.10
2023-01-26T18:44:37.430Z,31.10
2023-01-26T18:47:05.358Z,32.20
2023-01-26T18:49:33.103Z,32.80
2023-01-26T18:52:10.225Z,31.30
2023-01-26T18:54:44.658Z,44.20
2023-01-26T18:57:13.101Z,45.40
2023-01-26T18:59:40.856Z,58.10
2023-01-26T19:04:37.419Z,37.50
2023-01-26T19:07:05.461Z,38.60
2023-01-26T19:09:35.110Z,32.10
2023-01-26T19:12:04.439Z,36.00
2023-01-26T19:14:33.000Z,32.90
2023-01-26T19:17:01.301Z,34.20
2023-01-26T19:19:31.102Z,36.30
2023-01-26T19:21:59.011Z,52.90
2023-01-26T19:24:26.896Z,58.50
2023-01-26T19:26:54.871Z,41.70
2023-01-26T19:29:22.659Z,41.50
2023-01-26T19:31:50.744Z,33.90
2023-01-26T19:34:18.626Z,36.50
2023-01-26T19:36:46.980Z,49.70
2023-01-26T19:39:14.985Z,43.40
2023-01-26T19:41:44.180Z,40.80
2023-01-26T19:44:12.012Z,37.70
2023-01-26T19:46:39.942Z,36.00
2023-01-26T19:49:11.689Z,33.80
2023-01-26T19:51:39.652Z,32.90
2023-01-26T19:54:08.620Z,39.60
2023-01-26T19:56:37.328Z,35.60
2023-01-26T19:59:07.998Z,34.50
2023-01-26T20:01:36.497Z,29.40
2023-01-26T20:04:07.646Z,30.40
2023-01-26T20:06:36.959Z,31.60
2023-01-26T20:09:06.585Z,33.40
2023-01-26T20:11:34.895Z,33.10
2023-01-26T20:14:06.173Z,37.30
2023-01-26T20:16:34.491Z,36.40
2023-01-26T20:19:03.742Z,38.20
2023-01-26T20:21:32.370Z,36.70
2023-01-26T20:24:05.571Z,38.50
2023-01-26T20:26:34.908Z,39.90
2023-01-26T20:29:04.070Z,35.60
2023-01-26T20:31:33.199Z,34.10
2023-01-26T20:34:02.102Z,33.20
2023-01-26T20:36:31.616Z,37.10
2023-01-26T20:39:00.207Z,34.70
2023-01-26T20:41:30.072Z,36.30
2023-01-26T20:44:01.858Z,35.60
2023-01-26T20:46:40.615Z,34.80
2023-01-26T20:49:12.694Z,42.70
2023-01-26T20:54:16.912Z,34.40
2023-01-26T20:56:49.172Z,35.00
2023-01-26T20:59:18.932Z,37.70
2023-01-26T21:01:46.888Z,40.60
2023-01-26T21:04:14.705Z,39.50
2023-01-26T21:06:42.540Z,38.50
2023-01-26T21:09:12.760Z,43.30
2023-01-26T21:11:40.950Z,37.60
2023-01-26T21:14:12.204Z,40.50
2023-01-26T21:16:40.825Z,31.10
2023-01-26T21:19:08.745Z,51.20
2023-01-26T21:21:36.615Z,53.30
2023-01-26T21:24:04.701Z,49.00
2023-01-26T21:26:32.907Z,43.80
2023-01-26T21:29:01.090Z,42.40
2023-01-26T21:31:31.724Z,38.60
2023-01-26T21:34:00.910Z,44.20
2023-01-26T21:36:31.036Z,42.00
2023-01-26T21:39:00.412Z,48.80
2023-01-26T21:41:51.908Z,41.60
2023-01-26T21:44:27.929Z,48.30
2023-01-26T21:46:59.315Z,44.10
2023-01-26T21:49:30.815Z,51.70
2023-01-26T21:52:17.038Z,51.50
2023-01-26T21:54:44.962Z,44.10
2023-01-26T21:57:31.560Z,47.60
2023-01-26T21:59:59.462Z,48.50
2023-01-26T22:02:27.306Z,48.00
2023-01-26T22:04:55.376Z,48.20
2023-01-26T22:07:23.184Z,47.50
2023-01-26T22:09:50.955Z,48.20
2023-01-26T22:12:18.958Z,52.80
2023-01-26T22:14:46.850Z,42.70
2023-01-26T22:17:14.608Z,50.40
2023-01-26T22:19:42.412Z,74.70
2023-01-26T22:22:10.231Z,74.70
2023-01-26T22:24:38.742Z,53.00
2023-01-26T22:27:08.328Z,67.20
2023-01-26T22:29:36.278Z,57.60
2023-01-26T22:32:04.472Z,52.70
2023-01-26T22:34:32.584Z,49.10
2023-01-26T22:37:00.434Z,46.20
2023-01-26T22:39:28.259Z,41.90
2023-01-26T22:41:56.069Z,40.70
2023-01-26T22:44:23.955Z,65.10
2023-01-26T22:46:52.632Z,106.40
2023-01-26T22:49:20.446Z,89.40
2023-01-26T22:51:48.252Z,73.30
2023-01-26T22:54:16.064Z,61.30
2023-01-26T22:56:44.056Z,94.50
2023-01-26T22:59:12.040Z,98.10
2023-01-26T23:01:39.863Z,68.90
2023-01-26T23:04:08.619Z,57.50
2023-01-26T23:06:36.583Z,48.80
2023-01-26T23:09:04.815Z,67.10
2023-01-26T23:11:32.831Z,74.90
2023-01-26T23:14:00.904Z,60.70
2023-01-26T23:16:29.322Z,51.30
2023-01-26T23:18:58.918Z,44.90
2023-01-26T23:21:27.991Z,45.80
2023-01-26T23:23:56.059Z,43.50
2023-01-26T23:26:24.825Z,46.30
2023-01-26T23:28:52.584Z,51.60
2023-01-26T23:31:20.971Z,52.60
2023-01-26T23:33:49.874Z,55.80
2023-01-26T23:36:17.764Z,59.10
2023-01-26T23:38:45.998Z,56.20
2023-01-26T23:41:13.913Z,71.70
2023-01-26T23:43:41.730Z,58.70
2023-01-26T23:46:10.524Z,59.30
2023-01-26T23:48:39.340Z,62.90
2023-01-26T23:51:10.778Z,62.20
2023-01-26T23:53:39.144Z,68.20
2023-01-26T23:56:10.833Z,61.10
2023-01-26T23:58:39.065Z,64.00
